This is the latest recevied weather packets stored in our database for station/object WC4PEM-9. If no packets are shown the sender has not sent any weather packets the latest 10 day(s).
| Time | Temp. | Humidity | Pressure | Rain* | Wind** | Luminosity | Snow |
|---|---|---|---|---|---|---|---|
| 1777579124 | 30.56° C | 47% | 1009.9 hPa | 0 mm | - | - | - |
| 1777578905 | 31.11° C | 46% | 1009.8 hPa | 0 mm | - | - | - |
| 1777578824 | 31.11° C | 46% | 1009.8 hPa | 0 mm | - | - | - |
| 1777578524 | 31.11° C | 47% | 1009.8 hPa | 0 mm | - | - | - |
| 1777578224 | 31.11° C | 44% | 1009.5 hPa | 0 mm | - | - | - |
| 1777577924 | 31.11° C | 44% | 1009.7 hPa | 0 mm | - | - | - |
| 1777577771 | 31.11° C | 45% | 1009.8 hPa | 0 mm | - | - | - |
| 1777577719 | 31.11° C | 45% | 1009.8 hPa | 0 mm | - | - | - |
| 1777577624 | 31.11° C | 45% | 1009.8 hPa | 0 mm | - | - | - |
| 1777577417 | 31.11° C | 45% | 1009.8 hPa | 0 mm | - | - | - |
| 1777577324 | 31.11° C | 45% | 1009.8 hPa | 0 mm | - | - | - |
| 1777577024 | 31.11° C | 48% | 1009.9 hPa | 0 mm | - | - | - |
| 1777576825 | 31.11° C | 46% | 1010 hPa | 0 mm | - | - | - |
| 1777576724 | 31.11° C | 46% | 1010 hPa | 0 mm | - | - | - |
| 1777576526 | 31.11° C | 46% | 1009.9 hPa | 0 mm | - | - | - |
| 1777576491 | 31.11° C | 46% | 1009.9 hPa | 0 mm | - | - | - |
| 1777576424 | 31.11° C | 46% | 1009.9 hPa | 0 mm | - | - | - |
| 1777576172 | 31.11° C | 45% | 1009.9 hPa | 0 mm | - | - | - |
| 1777576124 | 31.11° C | 45% | 1009.9 hPa | 0 mm | - | - | - |
| 1777575824 | 30.56° C | 48% | 1010 hPa | 0 mm | - | - | - |
| 1777575633 | 30.56° C | 48% | 1010.1 hPa | 0 mm | - | - | - |
| 1777575524 | 30.56° C | 48% | 1010.1 hPa | 0 mm | - | - | - |
| 1777575294 | 30.56° C | 46% | 1010.2 hPa | 0 mm | - | - | - |
| 1777575224 | 30.56° C | 46% | 1010.2 hPa | 0 mm | - | - | - |
| 1777575085 | 31.11° C | 48% | 1010.4 hPa | 0 mm | - | - | - |
* Rain latest hour (hover to see other rain measurements)
** Current wind speed in m/s (hover to see current wind gust speed)